createdAt,value
2023-01-23T00:00:52.818Z,103767.91
2023-01-23T00:03:38.805Z,103772.28
2023-01-23T00:06:25.150Z,103765.28
2023-01-23T00:09:11.366Z,103763.53
2023-01-23T00:11:57.099Z,103757.44
2023-01-23T00:14:44.288Z,103766.16
2023-01-23T00:17:30.056Z,103770.53
2023-01-23T00:20:16.057Z,103774.91
2023-01-23T00:23:01.785Z,103768.78
2023-01-23T00:25:47.559Z,103771.38
2023-01-23T00:28:33.492Z,103774.00
2023-01-23T00:31:22.353Z,103773.16
2023-01-23T00:34:09.060Z,103765.28
2023-01-23T00:36:55.111Z,103762.66
2023-01-23T00:39:42.368Z,103761.81
2023-01-23T00:42:30.401Z,103770.50
2023-01-23T00:45:19.529Z,103765.28
2023-01-23T00:48:07.290Z,103768.75
2023-01-23T00:50:53.449Z,103759.16
2023-01-23T00:53:39.250Z,103764.38
2023-01-23T00:56:24.989Z,103767.88
2023-01-23T00:59:12.804Z,103771.38
2023-01-23T01:01:58.680Z,103781.81
2023-01-23T01:04:46.270Z,103781.81
2023-01-23T01:07:32.078Z,103781.81
2023-01-23T01:10:18.210Z,103780.09
2023-01-23T01:13:04.605Z,103783.56
2023-01-23T01:15:50.932Z,103787.09
2023-01-23T01:18:37.037Z,103798.41
2023-01-23T01:21:24.765Z,103801.00
2023-01-23T01:24:11.361Z,103798.41
2023-01-23T01:26:57.243Z,103800.16
2023-01-23T01:29:43.068Z,103801.03
2023-01-23T01:32:28.995Z,103802.75
2023-01-23T01:35:14.804Z,103802.75
2023-01-23T01:38:01.885Z,103808.88
2023-01-23T01:40:47.612Z,103821.13
2023-01-23T01:43:34.393Z,103816.72
2023-01-23T01:46:22.159Z,103827.19
2023-01-23T01:49:09.147Z,103827.19
2023-01-23T01:51:56.708Z,103820.22
2023-01-23T01:54:45.188Z,103825.47
2023-01-23T01:57:31.782Z,103828.97
2023-01-23T02:00:18.814Z,103828.97
2023-01-23T02:03:04.803Z,103831.59
2023-01-23T02:05:53.208Z,103832.44
2023-01-23T02:08:41.221Z,103835.06
2023-01-23T02:11:28.700Z,103832.44
2023-01-23T02:14:15.355Z,103832.44
2023-01-23T02:17:03.503Z,103833.31
2023-01-23T02:19:51.869Z,103842.06
2023-01-23T02:22:39.457Z,103843.78
2023-01-23T02:25:28.561Z,103854.25
2023-01-23T02:28:16.599Z,103851.63
2023-01-23T02:31:04.591Z,103859.47
2023-01-23T02:33:53.142Z,103859.50
2023-01-23T02:36:39.202Z,103862.13
2023-01-23T02:39:25.610Z,103861.25
2023-01-23T02:42:12.636Z,103854.25
2023-01-23T02:45:08.297Z,103855.16
2023-01-23T02:47:54.241Z,103858.63
2023-01-23T02:50:40.955Z,103853.38
2023-01-23T02:53:28.138Z,103857.75
2023-01-23T02:56:13.871Z,103865.59
2023-01-23T02:59:17.215Z,103861.22
2023-01-23T03:02:06.142Z,103867.31
2023-01-23T03:04:52.349Z,103859.47
2023-01-23T03:07:39.196Z,103868.22
2023-01-23T03:10:24.976Z,103867.31
2023-01-23T03:13:12.019Z,103860.34
2023-01-23T03:15:58.343Z,103860.34
2023-01-23T03:18:54.258Z,103855.13
2023-01-23T03:21:41.146Z,103858.56
2023-01-23T03:24:27.215Z,103860.34
2023-01-23T03:27:13.239Z,103863.81
2023-01-23T03:30:15.997Z,103866.44
2023-01-23T03:33:02.228Z,103872.53
2023-01-23T03:35:49.803Z,103874.28
2023-01-23T03:38:35.763Z,103876.88
2023-01-23T03:41:25.192Z,103885.63
2023-01-23T03:44:12.959Z,103883.91
2023-01-23T03:46:59.093Z,103887.38
2023-01-23T03:49:44.982Z,103881.28
2023-01-23T03:52:32.580Z,103877.78
2023-01-23T03:55:18.754Z,103878.69
2023-01-23T03:58:06.014Z,103875.19
2023-01-23T04:00:53.524Z,103862.13
2023-01-23T04:03:39.739Z,103862.09
2023-01-23T04:06:25.995Z,103855.13
2023-01-23T04:09:13.249Z,103855.13
2023-01-23T04:12:00.219Z,103845.56
2023-01-23T04:14:46.811Z,103843.78
2023-01-23T04:17:33.653Z,103847.28
2023-01-23T04:20:20.115Z,103853.38
2023-01-23T04:23:06.330Z,103850.78
2023-01-23T04:25:53.738Z,103853.38
2023-01-23T04:28:41.063Z,103856.00
2023-01-23T04:31:27.411Z,103852.50
2023-01-23T04:34:13.847Z,103862.09
2023-01-23T04:37:01.196Z,103857.75
2023-01-23T04:39:47.518Z,103863.00
2023-01-23T04:42:35.201Z,103862.09
2023-01-23T04:45:26.089Z,103863.84
2023-01-23T04:48:38.262Z,103864.69
2023-01-23T04:51:24.762Z,103868.22
2023-01-23T04:54:10.979Z,103868.19
2023-01-23T04:56:56.787Z,103879.53
2023-01-23T04:59:44.467Z,103880.44
2023-01-23T05:02:30.282Z,103881.28
2023-01-23T05:05:20.700Z,103883.88
2023-01-23T05:08:08.973Z,103889.97
2023-01-23T05:10:54.606Z,103894.41
2023-01-23T05:13:41.012Z,103899.59
2023-01-23T05:16:28.119Z,103892.63
2023-01-23T05:19:36.084Z,103885.63
2023-01-23T05:22:24.347Z,103891.75
2023-01-23T05:25:10.781Z,103895.28
2023-01-23T05:27:57.920Z,103896.09
2023-01-23T05:30:44.931Z,103902.22
2023-01-23T05:33:40.317Z,103915.28
2023-01-23T05:36:26.437Z,103918.78
2023-01-23T05:39:12.633Z,103923.16
2023-01-23T05:41:58.954Z,103942.34
2023-01-23T05:44:59.988Z,103934.50
2023-01-23T05:47:50.315Z,103940.59
2023-01-23T05:50:38.842Z,103941.50
2023-01-23T05:53:24.753Z,103941.50
2023-01-23T05:56:14.278Z,103947.56
2023-01-23T05:59:22.967Z,103945.84
2023-01-23T06:02:19.393Z,103945.88
2023-01-23T06:05:08.975Z,103954.59
2023-01-23T06:08:18.853Z,103945.91
2023-01-23T06:11:05.385Z,103954.59
2023-01-23T06:13:51.528Z,103951.13
2023-01-23T06:16:37.994Z,103966.81
2023-01-23T06:19:24.771Z,103966.81
2023-01-23T06:22:10.828Z,103978.16
2023-01-23T06:25:16.182Z,103979.03
2023-01-23T06:28:02.123Z,103987.75
2023-01-23T06:30:50.474Z,103987.75
2023-01-23T06:33:45.809Z,103999.94
2023-01-23T06:36:32.654Z,104004.31
2023-01-23T06:39:18.846Z,104013.91
2023-01-23T06:42:09.959Z,104018.28
2023-01-23T06:44:59.538Z,104022.66
2023-01-23T06:47:48.828Z,104013.91
2023-01-23T06:50:35.086Z,104014.78
2023-01-23T06:53:21.375Z,104026.13
2023-01-23T06:56:09.725Z,104018.25
2023-01-23T06:58:58.342Z,104027.00
2023-01-23T07:01:49.392Z,104033.97
2023-01-23T07:04:42.922Z,104034.84
2023-01-23T07:07:30.523Z,104039.22
2023-01-23T07:10:17.638Z,104047.06
2023-01-23T07:13:04.642Z,104051.41
2023-01-23T07:15:52.021Z,104056.66
2023-01-23T07:18:38.350Z,104058.41
2023-01-23T07:21:27.867Z,104050.56
2023-01-23T07:24:13.722Z,104056.66
2023-01-23T07:26:59.834Z,104059.28
2023-01-23T07:29:46.086Z,104056.66
2023-01-23T07:32:33.086Z,104044.44
2023-01-23T07:35:19.098Z,104047.97
2023-01-23T07:38:05.022Z,104040.16
2023-01-23T07:40:50.702Z,104044.50
2023-01-23T07:43:36.487Z,104050.59
2023-01-23T07:46:23.655Z,104051.47
2023-01-23T07:49:10.909Z,104052.34
2023-01-23T07:51:56.736Z,104050.59
2023-01-23T07:54:42.600Z,104051.47
2023-01-23T07:57:28.523Z,104061.94
2023-01-23T08:00:14.858Z,104057.56
2023-01-23T08:03:00.884Z,104064.56
2023-01-23T08:05:50.703Z,104068.06
2023-01-23T08:08:36.493Z,104071.56
2023-01-23T08:11:23.901Z,104070.66
2023-01-23T08:14:09.953Z,104063.69
2023-01-23T08:16:56.040Z,104076.78
2023-01-23T08:19:42.204Z,104070.66
2023-01-23T08:22:29.281Z,104068.94
2023-01-23T08:25:15.172Z,104073.25
2023-01-23T08:28:00.901Z,104068.00
2023-01-23T08:30:46.783Z,104075.03
2023-01-23T08:33:34.145Z,104081.97
2023-01-23T08:36:20.247Z,104081.13
2023-01-23T08:39:07.979Z,104077.63
2023-01-23T08:41:53.972Z,104080.22
2023-01-23T08:44:39.810Z,104080.22
2023-01-23T08:47:25.636Z,104082.81
2023-01-23T08:50:12.827Z,104076.72
2023-01-23T08:52:58.659Z,104081.09
2023-01-23T08:55:45.943Z,104080.22
2023-01-23T08:58:32.296Z,104084.56
2023-01-23T09:01:19.095Z,104088.06
2023-01-23T09:04:05.633Z,104091.53
2023-01-23T09:06:51.634Z,104098.53
2023-01-23T09:09:37.548Z,104096.78
2023-01-23T09:12:24.694Z,104102.88
2023-01-23T09:15:11.013Z,104110.75
2023-01-23T09:17:57.212Z,104108.13
2023-01-23T09:20:43.038Z,104106.38
2023-01-23T09:23:28.735Z,104107.22
2023-01-23T09:26:15.231Z,104115.97
2023-01-23T09:29:02.511Z,104120.28
2023-01-23T09:31:48.241Z,104111.59
2023-01-23T09:34:34.013Z,104118.56
2023-01-23T09:37:20.158Z,104123.78
2023-01-23T09:40:06.190Z,104119.41
2023-01-23T09:42:52.336Z,104127.25
2023-01-23T09:45:39.765Z,104125.50
2023-01-23T09:48:27.149Z,104126.38
2023-01-23T09:51:14.494Z,104125.50
2023-01-23T09:54:01.723Z,104129.81
2023-01-23T09:56:47.533Z,104131.53
2023-01-23T09:59:34.738Z,104135.91
2023-01-23T10:02:25.061Z,104133.28
2023-01-23T10:05:15.626Z,104126.28
2023-01-23T10:08:04.365Z,104132.34
2023-01-23T10:10:53.951Z,104142.00
2023-01-23T10:13:48.072Z,104135.91
2023-01-23T10:16:51.774Z,104135.03
2023-01-23T10:19:51.948Z,104140.25
2023-01-23T10:22:38.538Z,104125.41
2023-01-23T10:25:25.200Z,104135.00
2023-01-23T10:28:17.753Z,104129.75
2023-01-23T10:31:04.946Z,104118.41
2023-01-23T10:33:52.220Z,104113.22
2023-01-23T10:36:47.787Z,104124.59
2023-01-23T10:39:42.802Z,104120.19
2023-01-23T10:42:28.928Z,104126.28
2023-01-23T10:45:16.498Z,104135.91
2023-01-23T10:48:06.309Z,104131.53
2023-01-23T10:50:52.408Z,104130.66
2023-01-23T10:53:39.568Z,104121.03
2023-01-23T10:56:25.305Z,104126.22
2023-01-23T10:59:14.499Z,104119.19
2023-01-23T11:02:09.951Z,104119.19
2023-01-23T11:04:56.143Z,104113.94
2023-01-23T11:07:41.941Z,104113.03
2023-01-23T11:10:29.010Z,104115.69
2023-01-23T11:13:22.290Z,104113.88
2023-01-23T11:16:09.056Z,104104.22
2023-01-23T11:18:55.719Z,104104.22
2023-01-23T11:21:51.447Z,104091.16
2023-01-23T11:24:41.126Z,104085.06
2023-01-23T11:27:30.839Z,104079.84
2023-01-23T11:30:21.543Z,104077.16
2023-01-23T11:33:13.665Z,104081.44
2023-01-23T11:36:03.698Z,104071.09
2023-01-23T11:38:52.758Z,104060.63
2023-01-23T11:41:39.177Z,104053.63
2023-01-23T11:44:28.179Z,104055.34
2023-01-23T11:47:27.542Z,104055.34
2023-01-23T11:50:18.941Z,104056.13
2023-01-23T11:53:06.818Z,104046.47
2023-01-23T11:55:59.964Z,104053.38
2023-01-23T11:59:03.718Z,104046.41
2023-01-23T12:02:03.078Z,104049.84
2023-01-23T12:05:02.701Z,104035.00
2023-01-23T12:07:50.607Z,104027.22
2023-01-23T12:10:40.370Z,104022.84
2023-01-23T12:13:32.506Z,104011.44
2023-01-23T12:16:20.601Z,104018.38
2023-01-23T12:19:11.434Z,104006.31
2023-01-23T12:21:57.954Z,104005.41
2023-01-23T12:24:53.565Z,104008.00
2023-01-23T12:27:41.919Z,103992.25
2023-01-23T12:30:30.072Z,103997.44
2023-01-23T12:33:30.602Z,103993.91
2023-01-23T12:36:26.922Z,103985.25
2023-01-23T12:39:18.396Z,103982.66
2023-01-23T12:42:05.362Z,103978.34
2023-01-23T12:44:53.795Z,103972.25
2023-01-23T12:47:40.221Z,103975.72
2023-01-23T12:50:29.039Z,103980.91
2023-01-23T12:53:17.043Z,103967.88
2023-01-23T12:56:04.589Z,103973.00
2023-01-23T12:58:52.074Z,103974.69
2023-01-23T13:01:43.886Z,103967.66
2023-01-23T13:04:32.599Z,103972.06
2023-01-23T13:07:23.237Z,103968.53
2023-01-23T13:10:25.113Z,103971.97
2023-01-23T13:13:11.302Z,103960.63
2023-01-23T13:16:04.101Z,103978.00
2023-01-23T13:19:11.413Z,103974.47
2023-01-23T13:22:04.721Z,103972.75
2023-01-23T13:25:08.688Z,103969.28
2023-01-23T13:27:58.729Z,103965.06
2023-01-23T13:30:44.873Z,103964.84
2023-01-23T13:33:53.790Z,103960.50
2023-01-23T13:36:41.222Z,103962.97
2023-01-23T13:39:27.824Z,103962.13
2023-01-23T13:42:43.915Z,103956.03
2023-01-23T13:45:31.732Z,103952.50
2023-01-23T14:22:55.059Z,103945.44
2023-01-23T14:25:41.369Z,103942.06
2023-01-23T14:28:27.479Z,103954.19
2023-01-23T14:31:16.074Z,103947.19
2023-01-23T14:34:09.607Z,103951.53
2023-01-23T14:37:02.455Z,103951.50
2023-01-23T14:39:53.109Z,103932.44
2023-01-23T14:42:40.207Z,103950.72
2023-01-23T14:45:25.925Z,103948.13
2023-01-23T14:48:14.430Z,103948.22
2023-01-23T14:51:06.130Z,103942.94
2023-01-23T14:53:54.086Z,103945.56
2023-01-23T14:56:40.208Z,103950.84
2023-01-23T14:59:26.984Z,103951.69
2023-01-23T15:02:24.794Z,103943.03
2023-01-23T15:05:17.621Z,103933.63
2023-01-23T15:08:07.104Z,103944.91
2023-01-23T15:10:53.162Z,103932.69
2023-01-23T15:13:42.947Z,103927.41
2023-01-23T15:16:31.570Z,103923.97
2023-01-23T15:19:19.553Z,103935.34
2023-01-23T15:22:06.438Z,103930.22
2023-01-23T15:24:53.718Z,103931.03
2023-01-23T15:27:39.627Z,103937.16
2023-01-23T15:30:29.324Z,103937.16
2023-01-23T15:33:25.914Z,103928.50
2023-01-23T15:36:14.160Z,103931.16
2023-01-23T15:39:00.069Z,103927.84
2023-01-23T15:41:48.923Z,103939.94
2023-01-23T15:44:35.035Z,103948.78
2023-01-23T15:47:22.018Z,103961.00
2023-01-23T15:50:08.490Z,103981.06
2023-01-23T15:52:55.273Z,103974.91
2023-01-23T15:55:41.540Z,103974.16
2023-01-23T15:58:28.686Z,103981.97
2023-01-23T16:01:14.579Z,103987.13
2023-01-23T16:04:00.331Z,103997.63
2023-01-23T16:06:46.153Z,103996.78
2023-01-23T16:09:32.741Z,103995.94
2023-01-23T16:12:19.408Z,103998.53
2023-01-23T16:15:10.549Z,103999.41
2023-01-23T16:17:56.272Z,104003.78
2023-01-23T16:20:43.726Z,103998.59
2023-01-23T16:23:42.394Z,103999.47
2023-01-23T16:26:32.568Z,103999.44
2023-01-23T16:29:26.042Z,104008.22
2023-01-23T16:32:13.876Z,104018.66
2023-01-23T16:34:59.741Z,104021.25
2023-01-23T16:37:46.534Z,104023.03
2023-01-23T16:40:32.608Z,104016.84
2023-01-23T16:43:18.604Z,104021.25
2023-01-23T16:46:04.510Z,104014.28
2023-01-23T16:48:54.680Z,104013.41
2023-01-23T16:51:40.829Z,104021.31
2023-01-23T16:54:27.060Z,104022.19
2023-01-23T16:57:13.896Z,104021.34
2023-01-23T16:59:59.905Z,104025.78
2023-01-23T17:02:47.157Z,104032.75
2023-01-23T17:05:34.225Z,104040.66
2023-01-23T17:08:20.786Z,104045.81
2023-01-23T17:11:06.515Z,104045.81
2023-01-23T17:13:53.588Z,104056.28
2023-01-23T17:16:39.865Z,104053.72
2023-01-23T17:19:28.156Z,104052.00
2023-01-23T17:22:19.020Z,104063.28
2023-01-23T17:25:07.400Z,104069.38
2023-01-23T17:28:11.522Z,104065.03
2023-01-23T17:31:00.269Z,104062.41
2023-01-23T17:33:46.438Z,104064.19
2023-01-23T17:36:32.359Z,104068.56
2023-01-23T17:39:20.632Z,104069.38
2023-01-23T17:42:07.246Z,104072.97
2023-01-23T17:44:53.171Z,104072.06
2023-01-23T17:47:39.431Z,104073.84
2023-01-23T17:50:25.791Z,104086.91
2023-01-23T17:53:13.082Z,104087.75
2023-01-23T17:56:00.375Z,104083.44
2023-01-23T17:58:46.250Z,104090.41
2023-01-23T18:01:31.837Z,104091.28
2023-01-23T18:04:18.249Z,104094.78
2023-01-23T18:07:03.904Z,104099.13
2023-01-23T18:09:50.650Z,104101.75
2023-01-23T18:12:39.593Z,104110.50
2023-01-23T18:15:29.422Z,104106.16
2023-01-23T18:18:21.598Z,104121.84
2023-01-23T18:21:08.814Z,104109.66
2023-01-23T18:23:55.561Z,104121.91
2023-01-23T18:26:44.547Z,104121.88
2023-01-23T18:29:36.381Z,104128.03
2023-01-23T18:32:29.928Z,104123.66
2023-01-23T18:35:20.064Z,104121.91
2023-01-23T18:38:08.523Z,104121.88
2023-01-23T18:40:55.742Z,104119.22
2023-01-23T18:43:43.559Z,104124.53
2023-01-23T18:46:31.262Z,104117.53
2023-01-23T18:49:31.699Z,104126.25
2023-01-23T18:52:22.782Z,104118.38
2023-01-23T18:55:12.039Z,104128.00
2023-01-23T18:58:10.571Z,104130.59
2023-01-23T19:00:58.770Z,104132.38
2023-01-23T19:03:47.012Z,104125.41
2023-01-23T19:06:34.810Z,104128.00
2023-01-23T19:09:21.784Z,104139.34
2023-01-23T19:12:20.607Z,104135.00
2023-01-23T19:15:22.139Z,104136.78
2023-01-23T19:18:11.982Z,104134.13
2023-01-23T19:21:13.058Z,104135.84
2023-01-23T19:23:59.455Z,104134.09
2023-01-23T19:26:45.820Z,104148.91
2023-01-23T19:29:32.043Z,104148.94
2023-01-23T19:32:18.199Z,104145.44
2023-01-23T19:35:13.819Z,104139.38
2023-01-23T19:38:01.603Z,104143.72
2023-01-23T19:40:47.460Z,104144.56
2023-01-23T19:43:33.229Z,104148.94
2023-01-23T19:46:19.340Z,104148.94
2023-01-23T19:49:05.867Z,104162.06
2023-01-23T19:51:52.466Z,104162.91
2023-01-23T19:54:39.598Z,104156.78
2023-01-23T19:57:25.700Z,104157.66
2023-01-23T20:00:14.329Z,104159.41
2023-01-23T20:03:01.903Z,104159.44
2023-01-23T20:05:48.463Z,104158.53
2023-01-23T20:08:34.634Z,104153.28
2023-01-23T20:11:21.910Z,104168.13
2023-01-23T20:14:08.075Z,104166.41
2023-01-23T20:16:54.100Z,104177.75
2023-01-23T20:19:40.297Z,104179.47
2023-01-23T20:22:26.459Z,104181.28
2023-01-23T20:25:13.434Z,104175.19
2023-01-23T20:28:00.759Z,104177.78
2023-01-23T20:30:46.777Z,104179.53
2023-01-23T20:33:32.868Z,104177.75
2023-01-23T20:36:18.646Z,104177.78
2023-01-23T20:39:05.416Z,104180.41
2023-01-23T20:41:51.328Z,104183.00
2023-01-23T20:44:39.793Z,104173.44
2023-01-23T20:47:27.104Z,104169.09
2023-01-23T20:50:13.232Z,104171.69
2023-01-23T20:53:16.754Z,104181.31
2023-01-23T20:56:03.540Z,104167.31
2023-01-23T20:59:07.969Z,104171.69
2023-01-23T21:02:13.040Z,104164.66
2023-01-23T21:04:59.208Z,104160.31
2023-01-23T21:07:45.698Z,104165.53
2023-01-23T21:10:31.959Z,104160.31
2023-01-23T21:13:17.829Z,104169.03
2023-01-23T21:16:04.938Z,104166.47
2023-01-23T21:18:53.297Z,104170.81
2023-01-23T21:21:39.475Z,104176.91
2023-01-23T21:24:25.338Z,104170.81
2023-01-23T21:27:13.415Z,104174.28
2023-01-23T21:29:59.388Z,104171.72
2023-01-23T21:32:45.433Z,104174.28
2023-01-23T21:35:32.999Z,104178.66
2023-01-23T21:38:18.898Z,104178.72
2023-01-23T21:41:04.792Z,104177.81
2023-01-23T21:43:50.724Z,104170.81
2023-01-23T21:46:36.710Z,104170.84
2023-01-23T21:49:39.175Z,104171.75
2023-01-23T21:52:26.735Z,104169.97
2023-01-23T21:55:12.700Z,104172.63
2023-01-23T21:57:58.533Z,104176.13
2023-01-23T22:01:01.864Z,104179.56
2023-01-23T22:03:47.976Z,104170.84
2023-01-23T22:06:34.217Z,104174.34
2023-01-23T22:09:21.853Z,104180.44
2023-01-23T22:12:07.915Z,104181.31
2023-01-23T22:14:53.806Z,104176.97
2023-01-23T22:17:39.448Z,104182.19
2023-01-23T22:20:25.235Z,104186.59
2023-01-23T22:23:11.004Z,104180.50
2023-01-23T22:25:58.893Z,104177.91
2023-01-23T22:28:44.864Z,104183.13
2023-01-23T22:31:30.809Z,104187.47
2023-01-23T22:34:16.955Z,104190.97
2023-01-23T22:37:02.825Z,104186.63
2023-01-23T22:39:49.473Z,104188.38
2023-01-23T22:42:36.597Z,104195.34
2023-01-23T22:45:22.888Z,104195.38
2023-01-23T22:48:08.868Z,104193.59
2023-01-23T22:50:54.710Z,104206.66
2023-01-23T22:53:40.690Z,104205.81
2023-01-23T22:56:27.580Z,104204.97
2023-01-23T22:59:14.850Z,104200.59
2023-01-23T23:02:00.728Z,104203.19
2023-01-23T23:04:48.358Z,104209.31
2023-01-23T23:07:34.177Z,104211.03
2023-01-23T23:10:20.147Z,104209.31
2023-01-23T23:13:06.443Z,104207.56
2023-01-23T23:15:53.741Z,104209.34
2023-01-23T23:18:39.766Z,104219.78
2023-01-23T23:21:27.936Z,104227.66
2023-01-23T23:24:14.139Z,104223.28
2023-01-23T23:27:00.095Z,104221.53
2023-01-23T23:29:46.495Z,104218.91
2023-01-23T23:32:33.524Z,104207.59
2023-01-23T23:35:19.849Z,104211.94
2023-01-23T23:38:06.162Z,104211.06
2023-01-23T23:40:55.552Z,104212.81
2023-01-23T23:43:41.426Z,104212.81
2023-01-23T23:46:27.478Z,104207.59
2023-01-23T23:49:14.587Z,104207.59
2023-01-23T23:52:00.378Z,104206.69
2023-01-23T23:54:46.078Z,104211.06
2023-01-23T23:57:32.050Z,104204.09
